Time;durP1;ratioP1;P1;durP2;ratioP2;P2;SDS_P1;SDS_P2;PMS_P1;PMS_P2;Temp;Humidity;BMP_temperature;BMP_pressure;BME280_temperature;BME280_humidity;BME280_pressure;Samples;Min_cycle;Max_cycle;Signal;HPM_P1;HPM_P2
2022/04/04 00:00:04;;;;;;;1999.90;999.90;;;3.60;99.90;;;;;;5071402;23;20494;-67
2022/04/04 00:02:31;;;;;;;1999.90;999.90;;;3.60;99.90;;;;;;5036543;28;20801;-66
2022/04/04 00:04:58;;;;;;;1999.90;999.90;;;3.50;99.90;;;;;;5052788;28;20446;-67
2022/04/04 00:07:24;;;;;;;1999.90;999.90;;;3.60;99.90;;;;;;5053289;28;20520;-66
2022/04/04 00:09:51;;;;;;;1999.90;999.90;;;3.80;99.90;;;;;;5053205;28;20509;-67
2022/04/04 00:12:18;;;;;;;1999.90;999.90;;;3.50;99.90;;;;;;5052909;28;20450;-67
2022/04/04 00:14:46;;;;;;;1999.90;999.90;;;3.50;99.90;;;;;;5051371;28;20438;-66
2022/04/04 00:17:12;;;;;;;1999.90;999.90;;;3.50;99.90;;;;;;5052377;28;20830;-67
2022/04/04 00:19:39;;;;;;;1999.90;999.90;;;3.50;99.90;;;;;;5051669;28;20844;-67
2022/04/04 00:22:06;;;;;;;1999.90;999.90;;;3.50;99.90;;;;;;5052312;28;20452;-67
2022/04/04 00:24:33;;;;;;;1999.90;999.90;;;3.50;99.90;;;;;;5051424;28;20987;-67
2022/04/04 00:27:01;;;;;;;1999.90;999.90;;;3.50;99.90;;;;;;5052248;28;20516;-67
2022/04/04 00:29:27;;;;;;;1999.90;999.90;;;3.50;99.90;;;;;;5051658;28;20898;-66
2022/04/04 00:31:55;;;;;;;1999.90;999.90;;;3.50;99.90;;;;;;5051977;28;20951;-67
2022/04/04 00:34:22;;;;;;;1999.90;999.90;;;3.50;99.90;;;;;;5051794;28;20503;-67
2022/04/04 00:36:49;;;;;;;1999.90;999.90;;;3.50;99.90;;;;;;5051600;28;21010;-65
2022/04/04 00:39:19;;;;;;;1999.90;999.90;;;3.40;99.90;;;;;;5051387;28;20995;-66
2022/04/04 00:41:46;;;;;;;1999.90;999.90;;;3.60;99.90;;;;;;5051949;28;20466;-66
2022/04/04 00:44:12;;;;;;;1999.90;999.90;;;3.50;99.90;;;;;;5051509;28;20860;-66
2022/04/04 00:46:41;;;;;;;1999.90;999.90;;;3.50;99.90;;;;;;5051725;28;20952;-67
2022/04/04 00:49:10;;;;;;;1999.90;999.90;;;3.50;99.90;;;;;;5051835;28;20470;-67
2022/04/04 00:51:37;;;;;;;1999.90;999.90;;;3.40;99.90;;;;;;5051516;28;20524;-67
2022/04/04 00:54:04;;;;;;;1999.90;999.90;;;3.40;99.90;;;;;;5051604;28;20474;-66
2022/04/04 00:56:32;;;;;;;1999.90;999.90;;;3.40;99.90;;;;;;5052080;28;20503;-67
2022/04/04 00:58:59;;;;;;;1999.90;999.90;;;3.40;99.90;;;;;;5051214;28;20478;-67
2022/04/04 01:01:26;;;;;;;1999.90;999.90;;;3.40;99.90;;;;;;5051544;28;20515;-66
2022/04/04 01:03:52;;;;;;;1999.90;999.90;;;3.40;99.90;;;;;;5051182;28;20539;-67
2022/04/04 01:06:20;;;;;;;1999.90;999.90;;;3.50;99.90;;;;;;5051553;28;20500;-67
2022/04/04 01:08:47;;;;;;;1999.90;999.90;;;3.40;99.90;;;;;;5051511;28;20527;-66
2022/04/04 01:11:14;;;;;;;1999.90;999.90;;;3.40;99.90;;;;;;5051596;28;20442;-67
2022/04/04 01:13:45;;;;;;;1999.90;999.90;;;3.40;99.90;;;;;;5051324;28;20831;-67
2022/04/04 01:16:12;;;;;;;1999.90;999.90;;;3.40;99.90;;;;;;5050957;28;20824;-67
2022/04/04 01:18:39;;;;;;;1999.90;999.90;;;3.40;99.90;;;;;;5051447;28;20470;-67
2022/04/04 01:21:05;;;;;;;1999.90;999.90;;;3.40;99.90;;;;;;5051485;28;20454;-67
2022/04/04 01:23:42;;;;;;;1999.90;999.90;;;3.40;99.90;;;;;;5051369;28;20473;-66
2022/04/04 01:26:11;;;;;;;1999.90;999.90;;;3.40;99.90;;;;;;5054557;28;20931;-66
2022/04/04 01:28:38;;;;;;;1999.90;999.90;;;3.50;99.90;;;;;;5054925;28;21006;-67
2022/04/04 01:31:06;;;;;;;1999.90;999.90;;;3.50;99.90;;;;;;5055318;28;20496;-67
2022/04/04 01:33:32;;;;;;;1999.90;999.90;;;3.50;99.90;;;;;;5055091;28;20935;-67
2022/04/04 01:36:00;;;;;;;1999.90;999.90;;;3.50;99.90;;;;;;5055694;28;20507;-67
2022/04/04 01:38:27;;;;;;;1999.90;999.90;;;3.50;99.90;;;;;;5054729;28;20829;-67
2022/04/04 01:40:54;;;;;;;1999.90;999.90;;;3.40;99.90;;;;;;5054724;28;20520;-67
2022/04/04 01:43:22;;;;;;;1999.90;999.90;;;3.50;99.90;;;;;;5054473;28;20446;-67
2022/04/04 01:48:36;;;;;;;1999.90;999.90;;;3.30;99.90;;;;;;5054863;28;21049;-67
2022/04/04 01:51:04;;;;;;;1999.90;999.90;;;3.20;99.90;;;;;;5054906;28;20442;-67
2022/04/04 01:53:32;;;;;;;1999.90;999.90;;;3.20;99.90;;;;;;5054348;28;20867;-67
2022/04/04 01:56:00;;;;;;;1999.90;999.90;;;3.30;99.90;;;;;;5055330;28;20486;-67
2022/04/04 01:58:28;;;;;;;1999.90;999.90;;;3.30;99.90;;;;;;5054650;28;20527;-66
2022/04/04 02:00:56;;;;;;;1999.90;999.90;;;3.30;99.90;;;;;;5054859;28;20457;-67
2022/04/04 02:03:23;;;;;;;1999.90;999.90;;;3.30;99.90;;;;;;5054459;28;20454;-66
2022/04/04 02:05:50;;;;;;;1999.90;999.90;;;3.40;99.90;;;;;;5055014;28;20990;-67
2022/04/04 02:08:17;;;;;;;1999.90;999.90;;;3.40;99.90;;;;;;5054367;28;20439;-66
2022/04/04 02:10:44;;;;;;;1999.90;999.90;;;3.50;99.90;;;;;;5055110;28;20891;-67
2022/04/04 02:13:11;;;;;;;1999.90;999.90;;;3.50;99.90;;;;;;5054157;28;20533;-67
2022/04/04 02:15:39;;;;;;;1999.90;999.90;;;3.40;99.90;;;;;;5054793;28;20500;-67
2022/04/04 02:18:06;;;;;;;1999.90;999.90;;;3.40;99.90;;;;;;5054031;28;20969;-66
2022/04/04 02:20:33;;;;;;;1999.90;999.90;;;3.40;99.90;;;;;;5054131;28;20994;-67
2022/04/04 02:23:00;;;;;;;1999.90;999.90;;;3.40;99.90;;;;;;5054127;28;20450;-67
2022/04/04 02:25:27;;;;;;;1999.90;999.90;;;3.40;99.90;;;;;;5054056;28;20504;-67
2022/04/04 02:27:53;;;;;;;1999.90;999.90;;;3.40;99.90;;;;;;5054272;28;20503;-67
2022/04/04 02:30:20;;;;;;;1999.90;999.90;;;3.40;99.90;;;;;;5054326;28;20673;-67
2022/04/04 02:32:48;;;;;;;1999.90;999.90;;;3.30;99.90;;;;;;5053911;28;20448;-67
2022/04/04 02:35:15;;;;;;;1999.90;999.90;;;3.30;99.90;;;;;;5054120;28;20439;-66
2022/04/04 02:37:43;;;;;;;1999.90;999.90;;;3.40;99.90;;;;;;5053239;28;20454;-66
2022/04/04 02:40:11;;;;;;;1999.90;999.90;;;3.40;99.90;;;;;;5053842;28;20477;-65
2022/04/04 02:42:38;;;;;;;1999.90;999.90;;;3.40;99.90;;;;;;5054022;28;20546;-67
2022/04/04 02:45:05;;;;;;;1999.90;999.90;;;3.40;99.90;;;;;;5054099;28;20508;-66
2022/04/04 02:47:32;;;;;;;1999.90;999.90;;;3.30;99.90;;;;;;5053534;28;20966;-66
2022/04/04 02:50:00;;;;;;;1999.90;999.90;;;3.40;99.90;;;;;;5053945;28;20516;-66
2022/04/04 02:52:26;;;;;;;1999.90;999.90;;;3.40;99.90;;;;;;5053981;28;20476;-67
2022/04/04 02:54:53;;;;;;;1999.90;999.90;;;3.40;99.90;;;;;;5053853;28;20446;-67
2022/04/04 02:57:18;;;;;;;1999.90;999.90;;;3.40;99.90;;;;;;5053502;28;20528;-67
2022/04/04 02:59:45;;;;;;;1999.90;999.90;;;3.40;99.90;;;;;;5053732;28;20513;-67
2022/04/04 03:02:12;;;;;;;1999.90;999.90;;;3.40;99.90;;;;;;5053078;28;20488;-67
2022/04/04 03:04:40;;;;;;;1999.90;999.90;;;3.40;99.90;;;;;;5053433;28;20482;-66
2022/04/04 03:07:08;;;;;;;1999.90;999.90;;;3.40;99.90;;;;;;5054024;28;20458;-66
2022/04/04 03:09:35;;;;;;;1999.90;999.90;;;3.40;99.90;;;;;;5053327;28;21247;-67
2022/04/04 03:12:02;;;;;;;1999.90;999.90;;;3.50;99.90;;;;;;5053432;28;20442;-67
2022/04/04 03:14:29;;;;;;;1999.90;999.90;;;3.50;99.90;;;;;;5053181;28;20461;-66
2022/04/04 03:16:56;;;;;;;1999.90;999.90;;;3.50;99.90;;;;;;5053821;28;20450;-67
2022/04/04 03:19:22;;;;;;;1999.90;999.90;;;3.60;99.90;;;;;;5052527;28;20995;-65
2022/04/04 03:21:49;;;;;;;1999.90;999.90;;;3.40;99.90;;;;;;5053318;28;20825;-66
2022/04/04 03:24:17;;;;;;;1999.90;999.90;;;3.50;99.90;;;;;;5052865;28;20478;-67
2022/04/04 03:26:44;;;;;;;1999.90;999.90;;;3.50;99.90;;;;;;5053110;28;20500;-67
2022/04/04 03:29:10;;;;;;;1999.90;999.90;;;3.50;99.90;;;;;;5052825;28;20850;-66
2022/04/04 03:31:37;;;;;;;1999.90;999.90;;;4.10;99.90;;;;;;5052926;28;20443;-67
2022/04/04 03:34:04;;;;;;;1999.90;999.90;;;3.60;99.90;;;;;;5053161;28;20488;-67
2022/04/04 03:36:30;;;;;;;1999.90;999.90;;;3.50;99.90;;;;;;5053106;28;20446;-67
2022/04/04 03:38:57;;;;;;;1999.90;999.90;;;3.60;99.90;;;;;;5052912;28;20505;-67
2022/04/04 03:41:25;;;;;;;1999.90;999.90;;;3.60;99.90;;;;;;5052940;28;20505;-67
2022/04/04 03:43:52;;;;;;;1999.90;999.90;;;4.30;99.90;;;;;;5053060;28;20446;-67
2022/04/04 03:46:19;;;;;;;1999.90;999.90;;;3.60;99.90;;;;;;5052679;28;20504;-67
2022/04/04 03:48:45;;;;;;;1999.90;999.90;;;3.70;99.90;;;;;;5053069;28;20466;-67
2022/04/04 03:51:12;;;;;;;1999.90;999.90;;;3.70;99.90;;;;;;5052316;28;20951;-67
2022/04/04 03:53:39;;;;;;;1999.90;999.90;;;3.70;99.90;;;;;;5052634;28;20458;-67
2022/04/04 03:56:07;;;;;;;1999.90;999.90;;;3.70;99.90;;;;;;5052962;28;20489;-64
2022/04/04 03:58:35;;;;;;;1999.90;999.90;;;3.60;99.90;;;;;;5052874;28;20484;-66
2022/04/04 04:01:01;;;;;;;1999.90;999.90;;;3.50;99.90;;;;;;5052131;28;21001;-67
2022/04/04 04:03:28;;;;;;;1999.90;999.90;;;4.10;99.90;;;;;;5052181;28;20451;-67
2022/04/04 04:06:11;;;;;;;1999.90;999.90;;;3.60;99.90;;;;;;5052653;28;20531;-65
2022/04/04 04:08:37;;;;;;;1999.90;999.90;;;3.80;99.90;;;;;;5032788;28;20474;-67
2022/04/04 04:11:04;;;;;;;1999.90;999.90;;;3.60;99.90;;;;;;5033826;28;20447;-67
2022/04/04 04:13:31;;;;;;;1999.90;999.90;;;3.50;99.90;;;;;;5052116;28;20484;-67
2022/04/04 04:15:59;;;;;;;1999.90;999.90;;;3.50;99.90;;;;;;5052777;28;20486;-67
2022/04/04 04:18:26;;;;;;;1999.90;999.90;;;3.50;99.90;;;;;;5051280;28;20446;-66
2022/04/04 04:20:52;;;;;;;1999.90;999.90;;;3.60;99.90;;;;;;5052540;28;20450;-67
2022/04/04 04:23:20;;;;;;;1999.90;999.90;;;3.60;99.90;;;;;;5051708;28;20446;-67
2022/04/04 04:25:48;;;;;;;1999.90;999.90;;;3.80;99.90;;;;;;5052059;28;20533;-67
2022/04/04 04:28:15;;;;;;;1999.90;999.90;;;3.60;99.90;;;;;;5051649;28;20453;-67
2022/04/04 04:30:41;;;;;;;1999.90;999.90;;;3.60;99.90;;;;;;5052439;28;20502;-67
2022/04/04 04:33:09;;;;;;;1999.90;999.90;;;4.30;99.90;;;;;;5052065;28;20504;-67
2022/04/04 04:35:36;;;;;;;1999.90;999.90;;;3.60;99.90;;;;;;5052400;28;20496;-67
2022/04/04 04:38:03;;;;;;;1999.90;999.90;;;4.30;99.90;;;;;;5051796;28;20447;-67
2022/04/04 04:40:30;;;;;;;1999.90;999.90;;;3.60;99.90;;;;;;5051648;28;20462;-67
2022/04/04 04:42:57;;;;;;;1999.90;999.90;;;3.60;99.90;;;;;;5051677;28;20459;-67
2022/04/04 04:45:24;;;;;;;1999.90;999.90;;;4.10;99.90;;;;;;5051914;28;20996;-66
2022/04/04 04:47:51;;;;;;;1999.90;999.90;;;3.40;99.90;;;;;;5051499;28;20450;-66
2022/04/04 04:50:21;;;;;;;1999.90;999.90;;;3.40;99.90;;;;;;5051437;28;21137;-67
2022/04/04 04:52:48;;;;;;;1999.90;999.90;;;3.50;99.90;;;;;;5051637;28;20442;-67
2022/04/04 04:55:16;;;;;;;1999.90;999.90;;;3.40;99.90;;;;;;5052059;28;20473;-67
2022/04/04 04:57:43;;;;;;;1999.90;999.90;;;3.40;99.90;;;;;;5051920;28;20450;-67
2022/04/04 05:00:13;;;;;;;1999.90;999.90;;;3.40;99.90;;;;;;5050455;28;20535;-67
2022/04/04 05:02:39;;;;;;;1999.90;999.90;;;3.50;99.90;;;;;;5051444;28;20450;-67
2022/04/04 05:05:07;;;;;;;1999.90;999.90;;;3.50;99.90;;;;;;5051834;28;20509;-67
2022/04/04 05:07:35;;;;;;;1999.90;999.90;;;3.50;99.90;;;;;;5052017;28;20979;-67
2022/04/04 05:10:01;;;;;;;1999.90;999.90;;;3.50;99.90;;;;;;5051083;28;21022;-67
2022/04/04 05:12:28;;;;;;;1999.90;999.90;;;3.50;99.90;;;;;;5051243;28;20450;-66
2022/04/04 05:14:55;;;;;;;1999.90;999.90;;;3.50;99.90;;;;;;5050971;28;20819;-66
2022/04/04 05:17:22;;;;;;;1999.90;999.90;;;3.50;99.90;;;;;;5050430;28;20469;-67
2022/04/04 05:19:48;;;;;;;1999.90;999.90;;;3.60;99.90;;;;;;5051200;28;20478;-66
2022/04/04 05:22:15;;;;;;;1999.90;999.90;;;3.60;99.90;;;;;;5051029;28;20447;-67
2022/04/04 05:24:43;;;;;;;1999.90;999.90;;;3.70;99.90;;;;;;5051010;28;21297;-66
2022/04/04 05:27:10;;;;;;;1999.90;999.90;;;3.60;99.90;;;;;;5051028;28;20446;-67
2022/04/04 05:29:36;;;;;;;1999.90;999.90;;;3.60;99.90;;;;;;5051644;28;20466;-66
2022/04/04 05:32:03;;;;;;;1999.90;999.90;;;3.70;99.90;;;;;;5051106;28;20515;-66
2022/04/04 05:34:30;;;;;;;1999.90;999.90;;;3.70;99.90;;;;;;5051688;28;20450;-66
2022/04/04 05:36:57;;;;;;;1999.90;999.90;;;3.80;99.90;;;;;;5051487;28;20447;-66
2022/04/04 05:39:23;;;;;;;1999.90;999.90;;;3.80;99.90;;;;;;5050158;28;20470;-66
2022/04/04 05:41:52;;;;;;;1999.90;999.90;;;4.20;99.90;;;;;;5050362;28;20799;-66
2022/04/04 05:44:18;;;;;;;1999.90;999.90;;;3.80;99.90;;;;;;5050676;28;20454;-66
2022/04/04 05:46:46;;;;;;;1999.90;999.90;;;3.90;99.90;;;;;;5050594;28;20508;-66
2022/04/04 05:49:12;;;;;;;1999.90;999.90;;;4.40;99.90;;;;;;5051629;28;20501;-66
2022/04/04 05:51:39;;;;;;;1999.90;999.90;;;3.90;99.90;;;;;;5049696;28;20826;-63
2022/04/04 05:54:06;;;;;;;1999.90;999.90;;;3.90;99.90;;;;;;5051594;28;20496;-66
2022/04/04 05:56:33;;;;;;;1999.90;999.90;;;3.90;99.90;;;;;;5051126;28;20442;-66
2022/04/04 05:59:01;;;;;;;1999.90;999.90;;;3.90;99.90;;;;;;5070799;23;21065;-64
2022/04/04 06:01:27;;;;;;;1999.90;999.90;;;4.30;99.90;;;;;;5026165;28;20458;-64
2022/04/04 06:03:54;;;;;;;1999.90;999.90;;;4.30;99.90;;;;;;5036083;28;20451;-65
2022/04/04 06:06:20;;;;;;;1999.90;999.90;;;4.00;99.90;;;;;;5038324;28;20952;-65
2022/04/04 06:08:47;;;;;;;1999.90;999.90;;;4.00;99.90;;;;;;5035042;28;20448;-65
2022/04/04 06:11:13;;;;;;;1999.90;999.90;;;4.00;99.90;;;;;;5018600;28;20452;-65
2022/04/04 06:13:40;;;;;;;1999.90;999.90;;;4.60;99.90;;;;;;5024979;28;20452;-66
2022/04/04 06:16:09;;;;;;;1999.90;999.90;;;4.10;99.90;;;;;;5037002;28;20473;-67
2022/04/04 06:18:36;;;;;;;1999.90;999.90;;;4.40;99.90;;;;;;5029168;28;20458;-66
2022/04/04 06:21:03;;;;;;;1999.90;999.90;;;4.40;99.90;;;;;;5022501;28;20451;-65
2022/04/04 06:23:30;;;;;;;1999.90;999.90;;;4.20;99.90;;;;;;5017197;28;20462;-64
2022/04/04 06:25:58;;;;;;;1999.90;999.90;;;4.20;99.90;;;;;;5015903;28;20475;-65
2022/04/04 06:28:25;;;;;;;1999.90;999.90;;;4.90;99.90;;;;;;5015252;28;20460;-65
2022/04/04 06:30:52;;;;;;;1999.90;999.90;;;4.30;99.90;;;;;;5017378;28;20613;-65
2022/04/04 06:33:19;;;;;;;1999.90;999.90;;;4.40;99.90;;;;;;5040540;28;20469;-64
2022/04/04 06:35:47;;;;;;;1999.90;999.90;;;4.50;99.90;;;;;;5028760;28;20502;-66
2022/04/04 06:38:18;;;;;;;1999.90;999.90;;;5.10;99.90;;;;;;5043538;28;20532;-64
2022/04/04 06:40:44;;;;;;;1999.90;999.90;;;4.60;99.90;;;;;;5038476;28;20475;-66
2022/04/04 06:43:11;;;;;;;1999.90;999.90;;;4.70;99.90;;;;;;5016095;28;20452;-64
2022/04/04 06:45:38;;;;;;;1999.90;999.90;;;4.70;99.90;;;;;;5019110;28;20483;-65
2022/04/04 06:48:05;;;;;;;1999.90;999.90;;;4.60;99.90;;;;;;5026223;28;20487;-65
2022/04/04 06:50:33;;;;;;;1999.90;999.90;;;4.60;99.90;;;;;;5015101;28;20480;-65
2022/04/04 06:53:00;;;;;;;1999.90;999.90;;;4.60;99.90;;;;;;5024912;28;20444;-65
2022/04/04 06:55:26;;;;;;;1999.90;999.90;;;4.70;99.90;;;;;;5028793;28;20443;-65
2022/04/04 06:57:53;;;;;;;1999.90;999.90;;;4.70;99.90;;;;;;5034735;28;20448;-65
2022/04/04 07:00:20;;;;;;;1999.90;999.90;;;4.90;99.90;;;;;;5027110;28;20847;-65
2022/04/04 07:02:47;;;;;;;1999.90;999.90;;;5.00;99.90;;;;;;5013885;28;21083;-64
2022/04/04 07:05:14;;;;;;;1999.90;999.90;;;5.00;99.90;;;;;;5001859;28;20560;-65
2022/04/04 07:07:42;;;;;;;1999.90;999.90;;;5.30;99.90;;;;;;5007695;28;20456;-65
2022/04/04 07:10:11;;;;;;;1999.90;999.90;;;5.10;99.90;;;;;;5015427;28;20468;-65
2022/04/04 07:12:40;;;;;;;1999.90;999.90;;;5.10;99.90;;;;;;5028850;28;20460;-67
2022/04/04 07:15:09;;;;;;;1999.90;999.90;;;5.30;99.90;;;;;;5032800;28;20445;-66
2022/04/04 07:17:36;;;;;;;1999.90;999.90;;;5.30;99.90;;;;;;5032355;28;20483;-66
2022/04/04 07:20:04;;;;;;;1999.90;999.90;;;5.30;99.90;;;;;;5032030;28;20487;-66
2022/04/04 07:22:34;;;;;;;1999.90;999.90;;;5.20;99.90;;;;;;5038711;28;20452;-64
2022/04/04 07:25:03;;;;;;;1999.90;999.90;;;5.30;99.90;;;;;;5051085;28;20447;-65
2022/04/04 07:27:29;;;;;;;1999.90;999.90;;;5.30;99.90;;;;;;5035652;28;20463;-65
2022/04/04 07:29:56;;;;;;;1999.90;999.90;;;5.30;99.90;;;;;;5034461;28;20865;-66
2022/04/04 07:32:23;;;;;;;1999.90;999.90;;;5.90;99.90;;;;;;5034515;28;20473;-65
2022/04/04 07:34:49;;;;;;;1999.90;999.90;;;5.40;99.90;;;;;;5015534;28;20490;-65
2022/04/04 07:37:16;;;;;;;1999.90;999.90;;;6.00;99.90;;;;;;5019575;28;20483;-65
2022/04/04 07:39:43;;;;;;;1999.90;999.90;;;6.10;99.90;;;;;;5014704;28;20468;-65
2022/04/04 07:42:12;;;;;;;1999.90;999.90;;;5.60;99.90;;;;;;5033363;28;20451;-65
2022/04/04 07:44:39;;;;;;;1999.90;999.90;;;6.20;99.90;;;;;;5033467;28;20455;-67
2022/04/04 07:47:06;;;;;;;1999.90;999.90;;;5.60;99.90;;;;;;5029241;28;20480;-64
2022/04/04 07:49:33;;;;;;;1999.90;999.90;;;5.60;99.90;;;;;;5028153;28;20529;-66
2022/04/04 07:51:59;;;;;;;1999.90;999.90;;;5.60;99.90;;;;;;5025551;28;20452;-66
2022/04/04 07:54:26;;;;;;;1999.90;999.90;;;5.70;99.90;;;;;;5025207;28;20455;-65
2022/04/04 07:56:53;;;;;;;1999.90;999.90;;;5.80;99.90;;;;;;5033327;28;20478;-65
2022/04/04 07:59:21;;;;;;;1999.90;999.90;;;6.20;99.90;;;;;;5016093;28;20490;-65
2022/04/04 08:01:48;;;;;;;1999.90;999.90;;;5.70;99.90;;;;;;5013286;28;20460;-66
2022/04/04 08:04:14;;;;;;;1999.90;999.90;;;5.80;99.90;;;;;;5024303;28;20448;-64
2022/04/04 08:06:41;;;;;;;1999.90;999.90;;;5.90;99.90;;;;;;5012836;28;21067;-65
2022/04/04 08:09:08;;;;;;;1999.90;999.90;;;6.00;99.90;;;;;;5017787;28;20480;-65
2022/04/04 08:11:35;;;;;;;1999.90;999.90;;;6.10;99.90;;;;;;5012279;28;20518;-65
2022/04/04 08:14:03;;;;;;;1999.90;999.90;;;5.80;99.90;;;;;;5012322;28;20879;-65
2022/04/04 08:16:31;;;;;;;1999.90;999.90;;;6.50;99.90;;;;;;5012261;28;20967;-66
2022/04/04 08:18:58;;;;;;;1999.90;999.90;;;6.30;99.90;;;;;;5019550;28;20573;-66
2022/04/04 08:21:26;;;;;;;1999.90;999.90;;;6.00;99.90;;;;;;5008598;28;20452;-64
2022/04/04 08:23:53;;;;;;;1999.90;999.90;;;6.10;99.90;;;;;;5012511;28;20929;-65
2022/04/04 08:26:20;;;;;;;1999.90;999.90;;;6.40;99.90;;;;;;5020703;28;20476;-66
2022/04/04 08:28:47;;;;;;;1999.90;999.90;;;6.60;99.90;;;;;;5011991;28;20518;-65
2022/04/04 08:31:13;;;;;;;1999.90;999.90;;;6.60;99.90;;;;;;5012496;28;20452;-66
2022/04/04 08:33:41;;;;;;;1999.90;999.90;;;7.40;99.90;;;;;;5012273;28;20455;-64
2022/04/04 08:36:08;;;;;;;1999.90;999.90;;;6.80;99.90;;;;;;5012110;28;21015;-65
2022/04/04 08:38:37;;;;;;;1999.90;999.90;;;6.60;99.90;;;;;;5012999;28;20452;-65
2022/04/04 08:41:06;;;;;;;1999.90;999.90;;;6.40;99.90;;;;;;5013636;28;20460;-65
2022/04/04 08:43:36;;;;;;;1999.90;999.90;;;7.00;99.90;;;;;;5012208;28;20937;-65
2022/04/04 08:46:04;;;;;;;1999.90;999.90;;;6.60;99.90;;;;;;5012801;28;20534;-62
2022/04/04 08:48:32;;;;;;;1999.90;999.90;;;6.80;99.90;;;;;;5013105;28;20797;-63
2022/04/04 08:50:59;;;;;;;1999.90;999.90;;;6.70;99.90;;;;;;5012493;28;20487;-61
2022/04/04 08:53:26;;;;;;;1999.90;999.90;;;7.00;99.90;;;;;;5029894;28;20452;-66
2022/04/04 08:55:53;;;;;;;1999.90;999.90;;;7.10;99.90;;;;;;5019248;28;20444;-65
2022/04/04 08:58:19;;;;;;;1999.90;999.90;;;6.60;99.90;;;;;;5016845;28;20873;-61
2022/04/04 09:00:46;;;;;;;1999.90;999.90;;;6.80;99.90;;;;;;5011182;28;20549;-66
2022/04/04 09:03:20;;;;;;;1999.90;999.90;;;6.80;99.90;;;;;;5011704;28;20456;-65
2022/04/04 09:05:52;;;;;;;1999.90;999.90;;;6.70;99.90;;;;;;4992814;28;20982;-65
2022/04/04 09:08:21;;;;;;;1999.90;999.90;;;6.50;99.90;;;;;;4994587;28;20452;-66
2022/04/04 09:10:50;;;;;;;1999.90;999.90;;;6.60;99.90;;;;;;4998791;28;20499;-65
2022/04/04 09:13:19;;;;;;;1999.90;999.90;;;6.50;99.90;;;;;;5012040;28;20448;-65
2022/04/04 09:15:53;;;;;;;1999.90;999.90;;;6.80;99.90;;;;;;5011375;28;20461;-66
2022/04/04 09:18:24;;;;;;;1999.90;999.90;;;6.50;99.90;;;;;;5011359;28;20496;-65
2022/04/04 09:20:52;;;;;;;1999.90;999.90;;;6.80;99.90;;;;;;5011162;28;21051;-65
2022/04/04 09:23:20;;;;;;;1999.90;999.90;;;6.50;99.90;;;;;;5005831;28;20444;-65
2022/04/04 09:25:47;;;;;;;1999.90;999.90;;;6.50;99.90;;;;;;5011502;28;20449;-65
2022/04/04 09:28:15;;;;;;;1999.90;999.90;;;6.30;99.90;;;;;;5000727;28;20488;-65
2022/04/04 09:30:43;;;;;;;1999.90;999.90;;;6.40;99.90;;;;;;5012193;28;20555;-66
2022/04/04 09:33:14;;;;;;;1999.90;999.90;;;6.40;99.90;;;;;;5012321;28;20444;-66
2022/04/04 09:35:48;;;;;;;1999.90;999.90;;;6.10;99.90;;;;;;5012034;28;20653;-65
2022/04/04 09:38:16;;;;;;;1999.90;999.90;;;6.20;99.90;;;;;;5012525;28;20451;-66
2022/04/04 09:40:44;;;;;;;1999.90;999.90;;;5.90;99.90;;;;;;5011722;28;20518;-66
2022/04/04 09:43:11;;;;;;;1999.90;999.90;;;5.90;99.90;;;;;;5011873;28;20503;-65
2022/04/04 09:45:38;;;;;;;1999.90;999.90;;;5.80;99.90;;;;;;5012719;28;20877;-66
2022/04/04 09:48:07;;;;;;;1999.90;999.90;;;5.90;99.90;;;;;;5016008;28;20487;-66
2022/04/04 09:50:41;;;;;;;1999.90;999.90;;;5.90;99.90;;;;;;5015632;28;20482;-66
2022/04/04 09:53:10;;;;;;;1999.90;999.90;;;6.00;99.90;;;;;;5014574;28;20452;-66
2022/04/04 09:55:38;;;;;;;1999.90;999.90;;;6.00;99.90;;;;;;5010073;28;20991;-66
2022/04/04 09:58:08;;;;;;;1999.90;999.90;;;5.90;99.90;;;;;;5014544;28;20460;-65
2022/04/04 10:00:37;;;;;;;1999.90;999.90;;;6.40;99.90;;;;;;5012391;28;20992;-66
2022/04/04 10:03:05;;;;;;;1999.90;999.90;;;6.10;99.90;;;;;;5015303;28;20452;-63
2022/04/04 10:05:32;;;;;;;1999.90;999.90;;;6.50;99.90;;;;;;5016105;28;20447;-63
2022/04/04 10:08:01;;;;;;;1999.90;999.90;;;6.60;99.90;;;;;;5015098;28;20617;-63
2022/04/04 10:10:28;;;;;;;1999.90;999.90;;;6.50;99.90;;;;;;5015669;28;20530;-65
2022/04/04 10:12:56;;;;;;;1999.90;999.90;;;6.10;99.90;;;;;;5014775;28;21163;-65
2022/04/04 10:15:24;;;;;;;1999.90;999.90;;;6.20;99.90;;;;;;5015800;28;20504;-63
2022/04/04 10:17:53;;;;;;;1999.90;999.90;;;6.30;99.90;;;;;;5015466;28;20870;-63
2022/04/04 10:20:20;;;;;;;1999.90;999.90;;;6.20;99.90;;;;;;5014861;28;20463;-63
2022/04/04 10:22:51;;;;;;;1999.90;999.90;;;6.20;99.90;;;;;;5015091;28;20599;-63
2022/04/04 10:25:19;;;;;;;1999.90;999.90;;;6.50;99.90;;;;;;5014790;28;20444;-65
2022/04/04 10:27:47;;;;;;;1999.90;999.90;;;6.50;99.90;;;;;;5014842;28;21126;-63
2022/04/04 10:30:15;;;;;;;1999.90;999.90;;;6.50;99.90;;;;;;5014550;28;20989;-64
2022/04/04 10:32:51;;;;;;;1999.90;999.90;;;6.30;99.90;;;;;;5014311;28;20544;-66
2022/04/04 10:35:20;;;;;;;1999.90;999.90;;;6.20;99.90;;;;;;5015310;28;20451;-65
2022/04/04 10:37:47;;;;;;;1999.90;999.90;;;6.40;99.90;;;;;;5014181;28;20514;-66
2022/04/04 10:40:22;;;;;;;1999.90;999.90;;;6.10;99.90;;;;;;5014981;28;20530;-65
2022/04/04 10:43:02;;;;;;;1999.90;999.90;;;6.10;99.90;;;;;;5014462;28;20447;-65
2022/04/04 10:45:29;;;;;;;1999.90;999.90;;;6.30;99.90;;;;;;5027320;28;20424;-64
2022/04/04 10:48:06;;;;;;;1999.90;999.90;;;6.50;99.90;;;;;;5013497;28;20491;-64
2022/04/04 10:50:33;;;;;;;1999.90;999.90;;;6.60;99.90;;;;;;4995301;28;21000;-65
2022/04/04 10:53:02;;;;;;;1999.90;999.90;;;6.60;99.90;;;;;;5013091;28;20456;-66
2022/04/04 10:55:52;;;;;;;1999.90;999.90;;;6.60;99.90;;;;;;5012634;28;20452;-65
2022/04/04 10:58:27;;;;;;;1999.90;999.90;;;6.60;99.90;;;;;;5011517;28;20440;-65
2022/04/04 11:00:59;;;;;;;1999.90;999.90;;;6.70;99.90;;;;;;5013792;28;20507;-66
2022/04/04 11:03:32;;;;;;;1999.90;999.90;;;6.80;99.90;;;;;;5012672;28;20799;-62
2022/04/04 11:09:00;;;;;;;1999.90;999.90;;;6.70;99.90;;;;;;5014351;28;20416;-66
2022/04/04 11:11:52;;;;;;;1999.90;999.90;;;6.50;99.90;;;;;;5014068;28;20996;-65
2022/04/04 11:14:42;;;;;;;1999.90;999.90;;;6.60;99.90;;;;;;5014447;28;20483;-65
2022/04/04 11:17:38;;;;;;;1999.90;999.90;;;6.80;99.90;;;;;;5013873;28;20455;-65
2022/04/04 11:20:31;;;;;;;1999.90;999.90;;;6.60;99.90;;;;;;5013396;28;21042;-66
2022/04/04 11:22:58;;;;;;;1999.90;999.90;;;6.90;99.90;;;;;;5010750;28;20479;-65
2022/04/04 11:25:29;;;;;;;1999.90;999.90;;;6.90;99.90;;;;;;5012783;28;20879;-66
2022/04/04 11:27:57;;;;;;;1999.90;999.90;;;6.50;99.90;;;;;;5012309;28;21082;-65
2022/04/04 11:30:25;;;;;;;1999.90;999.90;;;6.60;99.90;;;;;;5012651;28;20562;-65
2022/04/04 11:32:57;;;;;;;1999.90;999.90;;;6.80;99.90;;;;;;5008086;28;20830;-65
2022/04/04 11:35:27;;;;;;;1999.90;999.90;;;6.40;99.90;;;;;;5013394;28;20452;-65
2022/04/04 11:37:56;;;;;;;1999.90;999.90;;;6.30;99.90;;;;;;5013826;28;20429;-65
2022/04/04 11:40:29;;;;;;;1999.90;999.90;;;6.20;99.90;;;;;;5012615;28;20908;-64
2022/04/04 11:42:57;;;;;;;1999.90;999.90;;;6.20;99.90;;;;;;5012911;28;20452;-66
2022/04/04 11:45:26;;;;;;;1999.90;999.90;;;6.70;99.90;;;;;;5013669;28;20452;-65
2022/04/04 11:47:56;;;;;;;1999.90;999.90;;;6.10;99.90;;;;;;5013230;28;20476;-64
2022/04/04 11:50:26;;;;;;;1999.90;999.90;;;5.90;99.90;;;;;;5013979;28;20526;-65
2022/04/04 11:52:55;;;;;;;1999.90;999.90;;;6.10;99.90;;;;;;5012750;28;20837;-65
2022/04/04 11:55:25;;;;;;;1999.90;999.90;;;6.10;99.90;;;;;;5013364;28;20455;-65
2022/04/04 11:57:57;;;;;;;1999.90;999.90;;;5.90;99.90;;;;;;5013149;28;20448;-64
2022/04/04 12:00:25;;;;;;;1999.90;999.90;;;6.00;99.90;;;;;;5040226;23;20576;-66
2022/04/04 12:02:51;;;;;;;1999.90;999.90;;;5.90;99.90;;;;;;5026557;28;20478;-66
2022/04/04 12:05:23;;;;;;;1999.90;999.90;;;5.90;99.90;;;;;;5028438;28;20811;-66
2022/04/04 12:07:51;;;;;;;1999.90;999.90;;;5.90;99.90;;;;;;5032373;28;20487;-66
2022/04/04 12:10:31;;;;;;;1999.90;999.90;;;5.80;99.90;;;;;;5031511;28;20473;-66
2022/04/04 12:13:02;;;;;;;1999.90;999.90;;;5.80;99.90;;;;;;5031212;28;20952;-65
2022/04/04 12:15:31;;;;;;;1999.90;999.90;;;6.00;99.90;;;;;;5021179;28;20938;-65
2022/04/04 12:17:58;;;;;;;1999.90;999.90;;;6.20;99.90;;;;;;5031489;28;20443;-66